createdAt,value
2019-06-08T00:00:13.219Z,99.90
2019-06-08T00:02:41.601Z,99.90
2019-06-08T00:05:10.432Z,99.90
2019-06-08T00:07:39.051Z,99.90
2019-06-08T00:10:08.310Z,99.90
2019-06-08T00:12:37.101Z,99.90
2019-06-08T00:15:07.627Z,99.90
2019-06-08T00:17:38.699Z,99.90
2019-06-08T00:20:07.384Z,99.90
2019-06-08T00:22:35.960Z,99.90
2019-06-08T00:25:05.620Z,99.90
2019-06-08T00:27:34.183Z,99.90
2019-06-08T00:30:04.077Z,99.90
2019-06-08T00:32:33.015Z,99.90
2019-06-08T00:35:01.600Z,99.90
2019-06-08T00:37:30.174Z,99.90
2019-06-08T00:39:58.754Z,99.90
2019-06-08T00:42:27.801Z,99.90
2019-06-08T00:44:56.380Z,99.90
2019-06-08T00:47:24.947Z,99.90
2019-06-08T00:49:53.512Z,99.90
2019-06-08T00:52:23.180Z,99.90
2019-06-08T00:54:51.994Z,99.90
2019-06-08T00:57:39.896Z,99.90
2019-06-08T01:00:11.346Z,99.90
2019-06-08T01:02:40.247Z,99.90
2019-06-08T01:05:09.838Z,99.90
2019-06-08T01:07:38.419Z,99.90
2019-06-08T01:10:08.133Z,99.90
2019-06-08T01:12:36.913Z,99.90
2019-06-08T01:15:07.388Z,99.90
2019-06-08T01:17:35.966Z,99.90
2019-06-08T01:20:06.771Z,99.90
2019-06-08T01:22:35.381Z,99.90
2019-06-08T01:25:04.708Z,99.90
2019-06-08T01:27:33.295Z,99.90
2019-06-08T01:30:01.848Z,99.90
2019-06-08T01:32:30.583Z,99.90
2019-06-08T01:34:59.270Z,99.90
2019-06-08T01:37:29.067Z,99.90
2019-06-08T01:39:57.723Z,99.90
2019-06-08T01:42:27.602Z,99.90
2019-06-08T01:44:56.374Z,99.90
2019-06-08T01:47:26.117Z,99.90
2019-06-08T01:49:54.729Z,99.90
2019-06-08T01:52:24.405Z,99.90
2019-06-08T01:54:53.447Z,99.90
2019-06-08T01:57:23.065Z,99.90
2019-06-08T01:59:51.831Z,99.90
2019-06-08T02:02:20.425Z,99.90
2019-06-08T02:04:49.038Z,99.90
2019-06-08T02:07:17.611Z,99.90
2019-06-08T02:09:46.179Z,99.90
2019-06-08T02:12:14.762Z,99.90
2019-06-08T02:14:43.327Z,99.90
2019-06-08T02:17:11.900Z,99.90
2019-06-08T02:19:40.459Z,99.90
2019-06-08T02:22:09.467Z,99.90
2019-06-08T02:24:38.032Z,99.90
2019-06-08T02:27:06.589Z,99.90
2019-06-08T02:29:35.790Z,99.90
2019-06-08T02:32:04.520Z,99.90
2019-06-08T02:34:35.037Z,99.90
2019-06-08T02:37:03.282Z,99.90
2019-06-08T02:39:32.723Z,99.90
2019-06-08T02:42:01.346Z,99.90
2019-06-08T02:44:30.248Z,99.90
2019-06-08T02:46:58.938Z,99.90
2019-06-08T02:49:29.009Z,99.90
2019-06-08T02:51:57.713Z,99.90
2019-06-08T02:54:26.347Z,99.90
2019-06-08T02:56:55.833Z,99.90
2019-06-08T02:59:29.070Z,99.90
2019-06-08T03:01:59.914Z,99.90
2019-06-08T03:04:32.388Z,99.90
2019-06-08T03:07:03.672Z,99.90
2019-06-08T03:09:34.755Z,99.90
2019-06-08T03:12:06.283Z,99.90
2019-06-08T03:14:35.546Z,99.90
2019-06-08T03:17:04.641Z,99.90
2019-06-08T03:19:33.455Z,99.90
2019-06-08T03:22:02.084Z,99.90
2019-06-08T03:24:32.257Z,99.90
2019-06-08T03:27:00.863Z,99.90
2019-06-08T03:29:29.427Z,99.90
2019-06-08T03:31:58.023Z,99.90
2019-06-08T03:34:26.570Z,99.90
2019-06-08T03:36:57.032Z,99.90
2019-06-08T03:39:25.326Z,99.90
2019-06-08T03:41:53.878Z,99.90
2019-06-08T03:44:22.485Z,99.90
2019-06-08T03:46:51.064Z,99.90
2019-06-08T03:49:39.994Z,99.90
2019-06-08T03:51:49.819Z,99.90
2019-06-08T03:54:18.377Z,99.90
2019-06-08T03:56:46.948Z,99.90
2019-06-08T03:59:15.510Z,99.90
2019-06-08T04:01:45.993Z,99.90
2019-06-08T04:04:14.290Z,99.90
2019-06-08T04:06:43.698Z,99.90
2019-06-08T04:09:12.428Z,99.90
2019-06-08T04:11:42.445Z,99.90
2019-06-08T04:14:11.195Z,99.90
2019-06-08T04:16:40.154Z,99.90
2019-06-08T04:19:09.113Z,99.90
2019-06-08T04:21:37.972Z,99.90
2019-06-08T04:24:06.678Z,99.90
2019-06-08T04:26:35.237Z,99.90
2019-06-08T04:29:03.819Z,99.90
2019-06-08T04:31:32.385Z,99.90
2019-06-08T04:34:00.993Z,99.90
2019-06-08T04:36:29.567Z,99.90
2019-06-08T04:38:58.145Z,99.90
2019-06-08T04:41:26.700Z,99.90
2019-06-08T04:43:55.284Z,99.90
2019-06-08T04:46:23.834Z,99.90
2019-06-08T04:48:52.416Z,99.90
2019-06-08T04:51:20.964Z,99.90
2019-06-08T04:53:49.807Z,99.90
2019-06-08T04:56:18.498Z,99.90
2019-06-08T04:58:48.962Z,99.90
2019-06-08T05:01:17.271Z,99.90
2019-06-08T05:03:47.598Z,99.90
2019-06-08T05:06:16.181Z,99.90
2019-06-08T05:08:45.277Z,99.90
2019-06-08T05:11:13.914Z,99.90
2019-06-08T05:13:43.344Z,99.90
2019-06-08T05:16:12.051Z,99.90
2019-06-08T05:18:41.233Z,99.90
2019-06-08T05:21:09.962Z,99.90
2019-06-08T05:23:39.268Z,99.90
2019-06-08T05:26:07.901Z,99.90
2019-06-08T05:28:36.445Z,99.90
2019-06-08T05:31:05.088Z,99.90
2019-06-08T05:33:33.649Z,99.90
2019-06-08T05:36:02.249Z,99.90
2019-06-08T05:38:30.809Z,99.90
2019-06-08T05:40:59.367Z,99.90
2019-06-08T05:43:27.942Z,99.90
2019-06-08T05:45:56.499Z,99.90
2019-06-08T05:48:25.071Z,99.90
2019-06-08T05:51:03.052Z,99.90
2019-06-08T05:53:23.846Z,99.90
2019-06-08T05:55:52.351Z,99.90
2019-06-08T05:58:20.909Z,99.90
2019-06-08T06:00:50.683Z,99.60
2019-06-08T06:03:19.361Z,99.50
2019-06-08T06:05:48.532Z,99.50
2019-06-08T06:08:19.115Z,99.40
2019-06-08T06:10:48.847Z,99.20
2019-06-08T06:13:17.490Z,99.30
2019-06-08T06:15:47.213Z,99.70
2019-06-08T06:18:15.825Z,99.70
2019-06-08T06:20:45.382Z,99.20
2019-06-08T06:23:13.990Z,99.20
2019-06-08T06:25:43.383Z,99.30
2019-06-08T06:28:12.024Z,98.80
2019-06-08T06:30:41.531Z,98.80
2019-06-08T06:33:10.168Z,99.50
2019-06-08T06:35:38.709Z,98.70
2019-06-08T06:38:07.355Z,98.80
2019-06-08T06:40:35.909Z,98.70
2019-06-08T06:43:04.567Z,99.00
2019-06-08T06:45:33.041Z,98.70
2019-06-08T06:48:01.539Z,97.70
2019-06-08T06:50:30.040Z,97.80
2019-06-08T06:52:58.581Z,98.20
2019-06-08T06:55:27.066Z,97.90
2019-06-08T06:57:55.642Z,97.50
2019-06-08T07:00:31.670Z,97.50
2019-06-08T07:03:01.609Z,97.40
2019-06-08T07:05:30.183Z,97.00
2019-06-08T07:07:58.844Z,97.50
2019-06-08T07:10:27.411Z,97.30
2019-06-08T07:12:56.026Z,97.20
2019-06-08T07:15:28.749Z,97.40
2019-06-08T07:17:58.532Z,97.20
2019-06-08T07:20:27.457Z,97.10
2019-06-08T07:22:55.995Z,97.00
2019-06-08T07:25:24.515Z,96.90
2019-06-08T07:27:53.072Z,97.20
2019-06-08T07:30:22.126Z,96.60
2019-06-08T07:32:50.932Z,97.30
2019-06-08T07:35:19.635Z,97.40
2019-06-08T07:37:48.943Z,96.70
2019-06-08T07:40:18.473Z,96.50
2019-06-08T07:42:47.646Z,96.40
2019-06-08T07:45:17.350Z,96.50
2019-06-08T07:47:45.913Z,97.10
2019-06-08T07:50:14.639Z,96.50
2019-06-08T07:52:43.526Z,96.00
2019-06-08T07:55:12.719Z,95.40
2019-06-08T07:57:41.353Z,95.40
2019-06-08T08:00:10.400Z,95.60
2019-06-08T08:02:39.021Z,95.30
2019-06-08T08:05:07.901Z,94.80
2019-06-08T08:07:36.631Z,94.40
2019-06-08T08:10:07.285Z,94.60
2019-06-08T08:12:35.813Z,94.10
2019-06-08T08:15:06.037Z,93.80
2019-06-08T08:17:34.572Z,93.60
2019-06-08T08:20:04.803Z,94.00
2019-06-08T08:22:33.385Z,95.00
2019-06-08T08:25:04.742Z,94.70
2019-06-08T08:27:32.196Z,94.00
2019-06-08T08:30:02.102Z,93.90
2019-06-08T08:32:30.883Z,94.00
2019-06-08T08:35:02.702Z,94.80
2019-06-08T08:37:29.588Z,94.50
2019-06-08T08:40:00.286Z,94.10
2019-06-08T08:42:30.179Z,93.30
2019-06-08T08:45:04.537Z,92.40
2019-06-08T08:47:30.805Z,93.10
2019-06-08T08:50:01.853Z,92.90
2019-06-08T08:52:36.812Z,93.30
2019-06-08T08:55:00.915Z,92.40
2019-06-08T08:57:29.990Z,92.70
2019-06-08T09:00:03.403Z,92.80
2019-06-08T09:02:28.776Z,93.10
2019-06-08T09:05:00.304Z,92.60
2019-06-08T09:07:27.705Z,93.20
2019-06-08T09:09:59.791Z,92.90
2019-06-08T09:12:27.712Z,93.00
2019-06-08T09:14:58.887Z,92.70
2019-06-08T09:17:27.978Z,93.10
2019-06-08T09:19:58.900Z,92.90
2019-06-08T09:22:28.176Z,92.80
2019-06-08T09:25:01.295Z,92.70
2019-06-08T09:27:28.067Z,93.00
2019-06-08T09:29:59.679Z,92.90
2019-06-08T09:32:28.190Z,92.90
2019-06-08T09:34:59.559Z,92.80
2019-06-08T09:37:28.790Z,92.50
2019-06-08T09:39:58.977Z,92.40
2019-06-08T09:42:28.466Z,92.70
2019-06-08T09:45:00.368Z,93.00
2019-06-08T09:47:28.030Z,92.80
2019-06-08T09:50:00.574Z,92.20
2019-06-08T09:52:28.163Z,92.20
2019-06-08T09:55:00.287Z,92.50
2019-06-08T09:57:28.415Z,92.80
2019-06-08T09:59:59.834Z,92.20
2019-06-08T10:02:28.355Z,92.20
2019-06-08T10:05:00.546Z,92.20
2019-06-08T10:07:31.057Z,91.80
2019-06-08T10:10:00.303Z,91.70
2019-06-08T10:12:28.202Z,91.70
2019-06-08T10:14:58.675Z,92.40
2019-06-08T10:17:27.889Z,92.60
2019-06-08T10:20:00.238Z,92.20
2019-06-08T10:22:28.299Z,91.90
2019-06-08T10:24:58.058Z,91.70
2019-06-08T10:27:28.363Z,91.90
2019-06-08T10:30:00.019Z,92.20
2019-06-08T10:32:28.211Z,92.10
2019-06-08T10:35:00.031Z,92.00
2019-06-08T10:37:28.377Z,91.70
2019-06-08T10:40:01.589Z,91.20
2019-06-08T10:42:27.563Z,92.00
2019-06-08T10:45:02.381Z,92.10
2019-06-08T10:47:29.559Z,91.40
2019-06-08T10:49:59.558Z,91.70
2019-06-08T10:52:28.148Z,92.00
2019-06-08T10:54:59.778Z,91.00
2019-06-08T10:57:28.014Z,90.90
2019-06-08T10:59:57.935Z,91.00
2019-06-08T11:02:28.102Z,91.50
2019-06-08T11:04:58.781Z,90.70
2019-06-08T11:07:27.985Z,91.30
2019-06-08T11:09:58.661Z,87.40
2019-06-08T11:12:28.322Z,85.60
2019-06-08T11:14:58.379Z,83.90
2019-06-08T11:17:27.944Z,82.30
2019-06-08T11:19:59.393Z,81.40
2019-06-08T11:22:27.864Z,78.70
2019-06-08T11:24:58.851Z,76.90
2019-06-08T11:27:28.469Z,75.30
2019-06-08T11:29:57.632Z,74.20
2019-06-08T11:32:26.284Z,74.80
2019-06-08T11:34:54.948Z,74.60
2019-06-08T11:37:23.508Z,73.70
2019-06-08T11:39:52.177Z,74.40
2019-06-08T11:42:20.712Z,74.80
2019-06-08T11:44:51.277Z,73.40
2019-06-08T11:47:19.485Z,73.40
2019-06-08T11:49:49.982Z,69.40
2019-06-08T11:52:18.512Z,68.30
2019-06-08T11:54:48.044Z,67.80
2019-06-08T11:57:17.769Z,67.10
2019-06-08T11:59:48.911Z,69.50
2019-06-08T12:02:18.486Z,69.80
2019-06-08T12:04:47.152Z,70.90
2019-06-08T12:07:15.708Z,70.20
2019-06-08T12:09:44.200Z,67.20
2019-06-08T12:12:17.825Z,63.80
2019-06-08T12:14:42.973Z,63.60
2019-06-08T12:17:16.854Z,65.50
2019-06-08T12:19:41.827Z,61.70
2019-06-08T12:22:11.628Z,59.60
2019-06-08T12:24:42.391Z,60.30
2019-06-08T12:27:23.701Z,63.40
2019-06-08T12:29:41.076Z,57.60
2019-06-08T12:32:12.267Z,59.50
2019-06-08T12:34:40.027Z,61.20
2019-06-08T12:37:13.416Z,59.80
2019-06-08T12:39:38.904Z,60.00
2019-06-08T12:42:09.607Z,60.90
2019-06-08T12:44:38.311Z,60.00
2019-06-08T12:47:10.584Z,59.70
2019-06-08T12:49:40.076Z,61.10
2019-06-08T12:52:08.625Z,61.00
2019-06-08T12:54:37.849Z,63.50
2019-06-08T12:57:10.154Z,62.90
2019-06-08T12:59:38.516Z,62.70
2019-06-08T13:02:08.924Z,62.70
2019-06-08T13:04:38.371Z,65.00
2019-06-08T13:07:09.781Z,64.30
2019-06-08T13:09:38.120Z,65.00
2019-06-08T13:12:08.040Z,66.50
2019-06-08T13:14:38.509Z,64.30
2019-06-08T13:17:08.702Z,64.30
2019-06-08T13:19:38.576Z,66.80
2019-06-08T13:22:08.801Z,63.30
2019-06-08T13:24:37.817Z,66.30
2019-06-08T13:27:06.824Z,64.30
2019-06-08T13:29:35.551Z,67.20
2019-06-08T13:32:04.370Z,66.20
2019-06-08T13:34:32.925Z,63.40
2019-06-08T13:37:01.477Z,64.70
2019-06-08T13:39:30.033Z,63.20
2019-06-08T13:41:58.519Z,64.80
2019-06-08T13:44:27.819Z,60.40
2019-06-08T13:46:57.865Z,58.10
2019-06-08T13:49:29.735Z,58.40
2019-06-08T13:51:58.454Z,58.70
2019-06-08T13:54:28.532Z,59.00
2019-06-08T13:56:58.945Z,58.70
2019-06-08T13:59:30.773Z,56.80
2019-06-08T14:01:58.355Z,58.00
2019-06-08T14:04:27.217Z,57.90
2019-06-08T14:06:58.209Z,57.50
2019-06-08T14:09:28.457Z,56.30
2019-06-08T14:11:57.792Z,56.20
2019-06-08T14:14:28.856Z,55.40
2019-06-08T14:16:58.652Z,54.70
2019-06-08T14:19:29.691Z,54.80
2019-06-08T14:21:57.272Z,53.70
2019-06-08T14:24:29.931Z,55.00
2019-06-08T14:26:58.258Z,54.90
2019-06-08T14:29:28.680Z,53.30
2019-06-08T14:31:57.751Z,53.10
2019-06-08T14:34:29.089Z,53.00
2019-06-08T14:36:58.990Z,51.80
2019-06-08T14:39:29.617Z,51.50
2019-06-08T14:41:57.816Z,50.70
2019-06-08T14:44:31.324Z,50.40
2019-06-08T14:46:57.994Z,49.50
2019-06-08T14:49:30.706Z,50.40
2019-06-08T14:51:57.966Z,48.70
2019-06-08T14:54:32.792Z,51.00
2019-06-08T14:56:57.755Z,50.40
2019-06-08T14:59:29.570Z,51.70
2019-06-08T15:01:56.841Z,50.70
2019-06-08T15:04:28.457Z,50.90
2019-06-08T15:06:58.429Z,51.80
2019-06-08T15:09:26.109Z,49.30
2019-06-08T15:11:54.725Z,49.40
2019-06-08T15:14:23.722Z,51.50
2019-06-08T15:16:52.355Z,51.80
2019-06-08T15:19:22.129Z,51.20
2019-06-08T15:21:50.753Z,52.10
2019-06-08T15:24:20.529Z,52.10
2019-06-08T15:26:49.431Z,52.10
2019-06-08T15:29:18.180Z,52.60
2019-06-08T15:31:48.153Z,52.50
2019-06-08T15:34:17.784Z,54.60
2019-06-08T15:36:46.803Z,53.00
2019-06-08T15:39:17.705Z,53.20
2019-06-08T15:41:45.744Z,52.30
2019-06-08T15:44:14.508Z,53.50
2019-06-08T15:46:43.231Z,52.80
2019-06-08T15:49:11.975Z,53.60
2019-06-08T15:51:40.804Z,53.70
2019-06-08T15:54:09.516Z,52.10
2019-06-08T15:56:48.145Z,53.60
2019-06-08T15:59:09.262Z,52.90
2019-06-08T16:01:37.909Z,53.00
2019-06-08T16:04:06.578Z,52.30
2019-06-08T16:06:35.208Z,52.50
2019-06-08T16:09:05.521Z,52.70
2019-06-08T16:11:34.632Z,52.10
2019-06-08T16:14:03.217Z,52.20
2019-06-08T16:16:33.132Z,53.10
2019-06-08T16:19:02.010Z,52.70
2019-06-08T16:21:31.720Z,53.10
2019-06-08T16:24:00.389Z,52.60
2019-06-08T16:26:29.644Z,52.60
2019-06-08T16:28:58.565Z,52.70
2019-06-08T16:31:27.375Z,51.90
2019-06-08T16:33:56.123Z,53.00
2019-06-08T16:36:24.993Z,53.10
2019-06-08T16:38:53.846Z,52.90
2019-06-08T16:41:22.406Z,53.10
2019-06-08T16:43:51.034Z,51.30
2019-06-08T16:46:19.514Z,52.40
2019-06-08T16:48:48.080Z,53.40
2019-06-08T16:51:16.649Z,53.10
2019-06-08T16:53:45.226Z,53.80
2019-06-08T16:56:13.809Z,53.00
2019-06-08T16:58:42.387Z,54.20
2019-06-08T17:01:10.989Z,53.60
2019-06-08T17:03:39.476Z,53.30
2019-06-08T17:06:08.054Z,53.90
2019-06-08T17:08:39.190Z,53.70
2019-06-08T17:11:07.207Z,53.80
2019-06-08T17:13:36.158Z,53.00
2019-06-08T17:16:04.787Z,53.00
2019-06-08T17:18:34.193Z,52.60
2019-06-08T17:21:02.811Z,53.00
2019-06-08T17:23:32.416Z,53.00
2019-06-08T17:26:01.056Z,53.80
2019-06-08T17:28:30.662Z,53.40
2019-06-08T17:30:59.318Z,53.60
2019-06-08T17:33:27.833Z,52.40
2019-06-08T17:35:56.389Z,52.90
2019-06-08T17:38:24.974Z,53.40
2019-06-08T17:40:53.525Z,54.50
2019-06-08T17:43:22.378Z,53.50
2019-06-08T17:45:50.952Z,54.00
2019-06-08T17:48:19.515Z,53.80
2019-06-08T17:50:48.012Z,54.20
2019-06-08T17:53:16.580Z,54.10
2019-06-08T17:55:45.149Z,54.00
2019-06-08T17:58:13.702Z,54.80
2019-06-08T18:00:43.777Z,54.60
2019-06-08T18:03:12.329Z,55.30
2019-06-08T18:05:42.803Z,54.90
2019-06-08T18:08:11.183Z,55.90
2019-06-08T18:10:41.457Z,56.80
2019-06-08T18:13:09.995Z,56.20
2019-06-08T18:15:40.268Z,56.40
2019-06-08T18:18:08.873Z,56.10
2019-06-08T18:20:40.490Z,55.60
2019-06-08T18:23:08.232Z,56.80
2019-06-08T18:25:38.733Z,57.40
2019-06-08T18:28:13.189Z,57.90
2019-06-08T18:30:41.227Z,58.00
2019-06-08T18:33:07.919Z,57.20
2019-06-08T18:35:39.413Z,57.50
2019-06-08T18:38:07.575Z,59.10
2019-06-08T18:40:37.913Z,58.80
2019-06-08T18:43:07.591Z,58.00
2019-06-08T18:45:39.502Z,60.00
2019-06-08T18:48:07.139Z,60.80
2019-06-08T18:50:38.064Z,60.00
2019-06-08T18:53:07.124Z,61.30
2019-06-08T18:55:38.720Z,61.40
2019-06-08T18:58:17.611Z,62.40
2019-06-08T19:00:41.137Z,58.90
2019-06-08T19:03:08.813Z,60.60
2019-06-08T19:05:40.244Z,61.40
2019-06-08T19:08:09.919Z,63.40
2019-06-08T19:10:40.386Z,63.50
2019-06-08T19:13:09.127Z,63.70
2019-06-08T19:15:41.871Z,63.50
2019-06-08T19:18:08.841Z,64.80
2019-06-08T19:20:42.316Z,64.20
2019-06-08T19:23:08.980Z,64.60
2019-06-08T19:25:42.159Z,65.40
2019-06-08T19:28:08.309Z,66.10
2019-06-08T19:30:39.483Z,66.80
2019-06-08T19:33:07.510Z,66.50
2019-06-08T19:35:36.087Z,67.80
2019-06-08T19:38:07.237Z,69.20
2019-06-08T19:40:34.940Z,69.50
2019-06-08T19:43:03.560Z,69.60
2019-06-08T19:45:32.083Z,70.20
2019-06-08T19:48:00.647Z,70.60
2019-06-08T19:50:29.223Z,71.90
2019-06-08T19:52:58.160Z,71.00
2019-06-08T19:55:27.515Z,72.00
2019-06-08T19:57:57.502Z,71.40
2019-06-08T20:00:27.809Z,71.80
2019-06-08T20:02:59.063Z,72.30
2019-06-08T20:05:28.670Z,72.90
2019-06-08T20:07:57.666Z,73.20
2019-06-08T20:10:27.952Z,73.60
2019-06-08T20:12:57.991Z,73.80
2019-06-08T20:15:26.692Z,75.50
2019-06-08T20:17:57.301Z,75.10
2019-06-08T20:20:27.672Z,75.00
2019-06-08T20:22:58.353Z,74.60
2019-06-08T20:25:27.831Z,74.50
2019-06-08T20:27:58.471Z,76.10
2019-06-08T20:30:28.175Z,78.30
2019-06-08T20:32:57.577Z,79.80
2019-06-08T20:35:29.349Z,80.50
2019-06-08T20:37:58.071Z,80.70
2019-06-08T20:40:28.224Z,79.90
2019-06-08T20:42:57.775Z,79.30
2019-06-08T20:45:28.085Z,79.70
2019-06-08T20:48:00.787Z,80.10
2019-06-08T20:50:29.360Z,79.20
2019-06-08T20:52:57.921Z,79.60
2019-06-08T20:55:28.322Z,79.20
2019-06-08T20:57:57.493Z,79.30
2019-06-08T21:00:26.292Z,79.20
2019-06-08T21:02:57.930Z,80.00
2019-06-08T21:05:27.584Z,81.70
2019-06-08T21:07:58.153Z,82.60
2019-06-08T21:10:27.937Z,82.60
2019-06-08T21:12:58.087Z,82.70
2019-06-08T21:15:27.434Z,83.50
2019-06-08T21:17:56.233Z,83.10
2019-06-08T21:20:24.730Z,82.10
2019-06-08T21:22:53.967Z,82.70
2019-06-08T21:25:23.682Z,83.60
2019-06-08T21:27:52.610Z,84.10
2019-06-08T21:30:24.774Z,82.90
2019-06-08T21:32:54.506Z,84.50
2019-06-08T21:35:22.813Z,83.80
2019-06-08T21:37:53.405Z,84.30
2019-06-08T21:40:21.569Z,85.20
2019-06-08T21:42:52.142Z,85.20
2019-06-08T21:45:20.364Z,85.60
2019-06-08T21:47:51.390Z,84.40
2019-06-08T21:50:19.135Z,84.90
2019-06-08T21:52:50.193Z,84.70
2019-06-08T21:55:17.914Z,85.00
2019-06-08T21:57:49.517Z,85.20
2019-06-08T22:00:35.799Z,86.10
2019-06-08T22:02:51.785Z,87.10
2019-06-08T22:07:50.068Z,86.90
2019-06-08T22:10:18.786Z,87.30
2019-06-08T22:12:48.283Z,87.30
2019-06-08T22:15:18.259Z,87.70
2019-06-08T22:17:47.614Z,88.00
2019-06-08T22:20:18.483Z,88.50
2019-06-08T22:22:47.342Z,89.00
2019-06-08T22:25:17.543Z,89.20
2019-06-08T22:27:46.381Z,89.60
2019-06-08T22:30:32.404Z,90.10
2019-06-08T22:32:47.386Z,90.30
2019-06-08T22:35:15.950Z,90.30
2019-06-08T22:37:44.448Z,90.50
2019-06-08T22:40:13.191Z,90.60
2019-06-08T22:42:41.812Z,90.70
2019-06-08T22:45:10.845Z,90.90
2019-06-08T22:47:39.417Z,90.90
2019-06-08T22:50:08.285Z,91.00
2019-06-08T22:52:37.659Z,91.50
2019-06-08T22:55:10.533Z,91.70
2019-06-08T22:57:37.735Z,91.90
2019-06-08T23:00:16.719Z,92.10
2019-06-08T23:02:38.741Z,92.30
2019-06-08T23:05:09.057Z,92.30
2019-06-08T23:07:38.059Z,92.10
2019-06-08T23:10:10.083Z,92.10
2019-06-08T23:12:38.711Z,92.40
2019-06-08T23:15:09.101Z,92.50
2019-06-08T23:17:38.927Z,92.70
2019-06-08T23:20:08.860Z,92.80
2019-06-08T23:22:38.443Z,92.80
2019-06-08T23:25:09.266Z,92.90
2019-06-08T23:27:38.160Z,92.90
2019-06-08T23:30:10.126Z,93.10
2019-06-08T23:32:39.030Z,93.30
2019-06-08T23:35:09.549Z,93.10
2019-06-08T23:37:38.281Z,93.30
2019-06-08T23:40:07.813Z,93.40
2019-06-08T23:42:38.429Z,93.50
2019-06-08T23:45:10.371Z,93.60
2019-06-08T23:47:38.528Z,93.70
2019-06-08T23:50:10.934Z,93.70
2019-06-08T23:52:38.450Z,93.90
2019-06-08T23:55:10.538Z,94.10
2019-06-08T23:57:38.183Z,94.20
